sensor_id;sensor_type;location;lat;lon;timestamp;P1;durP1;ratioP1;P2;durP2;ratioP2
14400;SDS011;7285;50.894;5.462;2024-03-02T00:00:50;1.00;;;1.00;;
14400;SDS011;7285;50.894;5.462;2024-03-02T00:03:18;0.80;;;0.80;;
14400;SDS011;7285;50.894;5.462;2024-03-02T00:05:48;0.70;;;0.70;;
14400;SDS011;7285;50.894;5.462;2024-03-02T00:08:20;1.23;;;1.23;;
14400;SDS011;7285;50.894;5.462;2024-03-02T00:10:51;0.80;;;0.80;;
14400;SDS011;7285;50.894;5.462;2024-03-02T00:13:23;0.80;;;0.80;;
14400;SDS011;7285;50.894;5.462;2024-03-02T00:15:51;1.43;;;1.43;;
14400;SDS011;7285;50.894;5.462;2024-03-02T00:18:19;0.80;;;0.80;;
14400;SDS011;7285;50.894;5.462;2024-03-02T00:20:52;0.80;;;0.80;;
14400;SDS011;7285;50.894;5.462;2024-03-02T00:23:21;0.80;;;0.80;;
14400;SDS011;7285;50.894;5.462;2024-03-02T00:25:50;0.93;;;0.93;;
14400;SDS011;7285;50.894;5.462;2024-03-02T00:28:19;0.90;;;0.90;;
14400;SDS011;7285;50.894;5.462;2024-03-02T00:30:51;0.90;;;0.90;;
14400;SDS011;7285;50.894;5.462;2024-03-02T00:33:22;0.80;;;0.80;;
14400;SDS011;7285;50.894;5.462;2024-03-02T00:35:50;0.80;;;0.80;;
14400;SDS011;7285;50.894;5.462;2024-03-02T00:38:17;0.90;;;0.90;;
14400;SDS011;7285;50.894;5.462;2024-03-02T00:40:45;0.80;;;0.80;;
14400;SDS011;7285;50.894;5.462;2024-03-02T00:43:19;0.80;;;0.80;;
14400;SDS011;7285;50.894;5.462;2024-03-02T00:46:08;0.90;;;0.90;;
14400;SDS011;7285;50.894;5.462;2024-03-02T00:48:37;0.87;;;0.87;;
14400;SDS011;7285;50.894;5.462;2024-03-02T00:51:04;0.90;;;0.90;;
14400;SDS011;7285;50.894;5.462;2024-03-02T00:53:31;0.90;;;0.90;;
14400;SDS011;7285;50.894;5.462;2024-03-02T00:56:00;0.90;;;0.90;;
14400;SDS011;7285;50.894;5.462;2024-03-02T00:58:27;0.90;;;0.90;;
14400;SDS011;7285;50.894;5.462;2024-03-02T01:00:54;0.90;;;0.90;;
14400;SDS011;7285;50.894;5.462;2024-03-02T01:03:21;1.10;;;1.10;;
14400;SDS011;7285;50.894;5.462;2024-03-02T01:05:49;1.00;;;1.00;;
14400;SDS011;7285;50.894;5.462;2024-03-02T01:08:16;1.00;;;1.00;;
14400;SDS011;7285;50.894;5.462;2024-03-02T01:10:43;1.10;;;1.10;;
14400;SDS011;7285;50.894;5.462;2024-03-02T01:13:11;1.10;;;1.10;;
14400;SDS011;7285;50.894;5.462;2024-03-02T01:15:38;1.00;;;1.00;;
14400;SDS011;7285;50.894;5.462;2024-03-02T01:18:05;0.93;;;0.93;;
14400;SDS011;7285;50.894;5.462;2024-03-02T01:20:33;1.00;;;1.00;;
14400;SDS011;7285;50.894;5.462;2024-03-02T01:23:00;0.90;;;0.90;;
14400;SDS011;7285;50.894;5.462;2024-03-02T01:25:26;0.93;;;0.93;;
14400;SDS011;7285;50.894;5.462;2024-03-02T01:27:53;0.90;;;0.90;;
14400;SDS011;7285;50.894;5.462;2024-03-02T01:30:22;1.00;;;1.00;;
14400;SDS011;7285;50.894;5.462;2024-03-02T01:32:48;1.00;;;1.00;;
14400;SDS011;7285;50.894;5.462;2024-03-02T01:35:15;0.93;;;0.93;;
14400;SDS011;7285;50.894;5.462;2024-03-02T01:37:42;1.37;;;1.27;;
14400;SDS011;7285;50.894;5.462;2024-03-02T01:40:10;0.90;;;0.90;;
14400;SDS011;7285;50.894;5.462;2024-03-02T01:42:37;1.20;;;1.20;;
14400;SDS011;7285;50.894;5.462;2024-03-02T01:45:05;0.90;;;0.90;;
14400;SDS011;7285;50.894;5.462;2024-03-02T01:47:34;0.90;;;0.90;;
14400;SDS011;7285;50.894;5.462;2024-03-02T01:50:02;0.90;;;0.90;;
14400;SDS011;7285;50.894;5.462;2024-03-02T01:52:29;0.93;;;0.93;;
14400;SDS011;7285;50.894;5.462;2024-03-02T01:54:55;0.90;;;0.90;;
14400;SDS011;7285;50.894;5.462;2024-03-02T01:57:23;0.90;;;0.90;;
14400;SDS011;7285;50.894;5.462;2024-03-02T01:59:50;1.10;;;1.10;;
14400;SDS011;7285;50.894;5.462;2024-03-02T02:02:18;1.00;;;1.00;;
14400;SDS011;7285;50.894;5.462;2024-03-02T02:04:47;1.00;;;1.00;;
14400;SDS011;7285;50.894;5.462;2024-03-02T02:07:13;1.83;;;1.73;;
14400;SDS011;7285;50.894;5.462;2024-03-02T02:09:41;0.93;;;0.93;;
14400;SDS011;7285;50.894;5.462;2024-03-02T02:12:08;1.10;;;1.10;;
14400;SDS011;7285;50.894;5.462;2024-03-02T02:14:35;0.80;;;0.80;;
14400;SDS011;7285;50.894;5.462;2024-03-02T02:17:02;0.97;;;0.97;;
14400;SDS011;7285;50.894;5.462;2024-03-02T02:19:29;1.00;;;1.00;;
14400;SDS011;7285;50.894;5.462;2024-03-02T02:21:58;1.00;;;1.00;;
14400;SDS011;7285;50.894;5.462;2024-03-02T02:24:25;1.00;;;1.00;;
14400;SDS011;7285;50.894;5.462;2024-03-02T02:26:51;0.90;;;0.90;;
14400;SDS011;7285;50.894;5.462;2024-03-02T02:29:19;1.00;;;1.00;;
14400;SDS011;7285;50.894;5.462;2024-03-02T02:31:45;0.80;;;0.80;;
14400;SDS011;7285;50.894;5.462;2024-03-02T02:34:13;0.90;;;0.90;;
14400;SDS011;7285;50.894;5.462;2024-03-02T02:36:41;1.00;;;1.00;;
14400;SDS011;7285;50.894;5.462;2024-03-02T02:39:11;1.00;;;1.00;;
14400;SDS011;7285;50.894;5.462;2024-03-02T02:41:39;1.10;;;1.10;;
14400;SDS011;7285;50.894;5.462;2024-03-02T02:44:06;1.07;;;1.07;;
14400;SDS011;7285;50.894;5.462;2024-03-02T02:46:33;0.80;;;0.80;;
14400;SDS011;7285;50.894;5.462;2024-03-02T02:49:00;0.90;;;0.90;;
14400;SDS011;7285;50.894;5.462;2024-03-02T02:51:27;1.10;;;1.10;;
14400;SDS011;7285;50.894;5.462;2024-03-02T02:53:54;1.00;;;1.00;;
14400;SDS011;7285;50.894;5.462;2024-03-02T02:56:22;0.90;;;0.90;;
14400;SDS011;7285;50.894;5.462;2024-03-02T02:58:49;0.93;;;0.93;;
14400;SDS011;7285;50.894;5.462;2024-03-02T03:01:16;1.00;;;1.00;;
14400;SDS011;7285;50.894;5.462;2024-03-02T03:03:43;0.90;;;0.90;;
14400;SDS011;7285;50.894;5.462;2024-03-02T03:06:10;0.80;;;0.80;;
14400;SDS011;7285;50.894;5.462;2024-03-02T03:08:37;0.80;;;0.80;;
14400;SDS011;7285;50.894;5.462;2024-03-02T03:11:04;0.83;;;0.83;;
14400;SDS011;7285;50.894;5.462;2024-03-02T03:13:33;0.90;;;0.90;;
14400;SDS011;7285;50.894;5.462;2024-03-02T03:16:00;0.97;;;0.97;;
14400;SDS011;7285;50.894;5.462;2024-03-02T03:18:28;1.00;;;1.00;;
14400;SDS011;7285;50.894;5.462;2024-03-02T03:20:55;1.00;;;1.00;;
14400;SDS011;7285;50.894;5.462;2024-03-02T03:23:21;0.90;;;0.90;;
14400;SDS011;7285;50.894;5.462;2024-03-02T03:25:48;1.00;;;1.00;;
14400;SDS011;7285;50.894;5.462;2024-03-02T03:28:15;0.90;;;0.90;;
14400;SDS011;7285;50.894;5.462;2024-03-02T03:30:44;0.90;;;0.90;;
14400;SDS011;7285;50.894;5.462;2024-03-02T03:33:11;1.20;;;1.20;;
14400;SDS011;7285;50.894;5.462;2024-03-02T03:35:38;1.10;;;1.10;;
14400;SDS011;7285;50.894;5.462;2024-03-02T03:38:05;1.00;;;1.00;;
14400;SDS011;7285;50.894;5.462;2024-03-02T03:40:32;1.00;;;1.00;;
14400;SDS011;7285;50.894;5.462;2024-03-02T03:42:59;1.00;;;1.00;;
14400;SDS011;7285;50.894;5.462;2024-03-02T03:45:26;1.00;;;1.00;;
14400;SDS011;7285;50.894;5.462;2024-03-02T03:47:54;1.00;;;1.00;;
14400;SDS011;7285;50.894;5.462;2024-03-02T03:50:21;1.10;;;1.10;;
14400;SDS011;7285;50.894;5.462;2024-03-02T03:52:48;0.93;;;0.93;;
14400;SDS011;7285;50.894;5.462;2024-03-02T03:55:15;0.93;;;0.93;;
14400;SDS011;7285;50.894;5.462;2024-03-02T03:57:42;1.00;;;1.00;;
14400;SDS011;7285;50.894;5.462;2024-03-02T04:00:09;1.00;;;1.00;;
14400;SDS011;7285;50.894;5.462;2024-03-02T04:02:37;1.10;;;1.10;;
14400;SDS011;7285;50.894;5.462;2024-03-02T04:05:06;1.10;;;1.10;;
14400;SDS011;7285;50.894;5.462;2024-03-02T04:07:35;1.00;;;1.00;;
14400;SDS011;7285;50.894;5.462;2024-03-02T04:10:08;1.03;;;1.03;;
14400;SDS011;7285;50.894;5.462;2024-03-02T04:12:36;1.10;;;1.10;;
14400;SDS011;7285;50.894;5.462;2024-03-02T04:15:03;1.03;;;1.03;;
14400;SDS011;7285;50.894;5.462;2024-03-02T04:17:31;1.00;;;1.00;;
14400;SDS011;7285;50.894;5.462;2024-03-02T04:20:00;1.00;;;1.00;;
14400;SDS011;7285;50.894;5.462;2024-03-02T04:22:32;1.03;;;1.03;;
14400;SDS011;7285;50.894;5.462;2024-03-02T04:25:00;0.90;;;0.90;;
14400;SDS011;7285;50.894;5.462;2024-03-02T04:27:29;0.90;;;0.90;;
14400;SDS011;7285;50.894;5.462;2024-03-02T04:29:56;1.10;;;1.10;;
14400;SDS011;7285;50.894;5.462;2024-03-02T04:32:25;0.90;;;0.90;;
14400;SDS011;7285;50.894;5.462;2024-03-02T04:34:52;1.00;;;1.00;;
14400;SDS011;7285;50.894;5.462;2024-03-02T04:37:19;1.00;;;1.00;;
14400;SDS011;7285;50.894;5.462;2024-03-02T04:39:47;1.20;;;1.20;;
14400;SDS011;7285;50.894;5.462;2024-03-02T04:42:14;1.20;;;1.20;;
14400;SDS011;7285;50.894;5.462;2024-03-02T04:44:41;1.20;;;1.20;;
14400;SDS011;7285;50.894;5.462;2024-03-02T04:47:08;0.90;;;0.90;;
14400;SDS011;7285;50.894;5.462;2024-03-02T04:49:35;0.87;;;0.87;;
14400;SDS011;7285;50.894;5.462;2024-03-02T04:52:02;1.00;;;1.00;;
14400;SDS011;7285;50.894;5.462;2024-03-02T04:54:30;0.90;;;0.90;;
14400;SDS011;7285;50.894;5.462;2024-03-02T04:56:58;1.00;;;1.00;;
14400;SDS011;7285;50.894;5.462;2024-03-02T04:59:25;1.00;;;1.00;;
14400;SDS011;7285;50.894;5.462;2024-03-02T05:01:52;1.00;;;1.00;;
14400;SDS011;7285;50.894;5.462;2024-03-02T05:04:18;0.80;;;0.80;;
14400;SDS011;7285;50.894;5.462;2024-03-02T05:06:46;0.90;;;0.90;;
14400;SDS011;7285;50.894;5.462;2024-03-02T05:09:17;1.00;;;1.00;;
14400;SDS011;7285;50.894;5.462;2024-03-02T05:11:44;1.00;;;1.00;;
14400;SDS011;7285;50.894;5.462;2024-03-02T05:14:26;1.00;;;1.00;;
14400;SDS011;7285;50.894;5.462;2024-03-02T05:16:54;0.90;;;0.90;;
14400;SDS011;7285;50.894;5.462;2024-03-02T05:19:20;1.67;;;1.57;;
14400;SDS011;7285;50.894;5.462;2024-03-02T05:21:47;0.90;;;0.90;;
14400;SDS011;7285;50.894;5.462;2024-03-02T05:24:15;1.20;;;1.20;;
14400;SDS011;7285;50.894;5.462;2024-03-02T05:26:42;0.93;;;0.93;;
14400;SDS011;7285;50.894;5.462;2024-03-02T05:29:08;1.00;;;1.00;;
14400;SDS011;7285;50.894;5.462;2024-03-02T05:31:37;1.00;;;1.00;;
14400;SDS011;7285;50.894;5.462;2024-03-02T05:34:04;1.10;;;1.10;;
14400;SDS011;7285;50.894;5.462;2024-03-02T05:36:31;1.10;;;1.10;;
14400;SDS011;7285;50.894;5.462;2024-03-02T05:38:58;0.90;;;0.90;;
14400;SDS011;7285;50.894;5.462;2024-03-02T05:41:25;1.00;;;1.00;;
14400;SDS011;7285;50.894;5.462;2024-03-02T05:43:52;0.90;;;0.90;;
14400;SDS011;7285;50.894;5.462;2024-03-02T05:46:19;0.90;;;0.90;;
14400;SDS011;7285;50.894;5.462;2024-03-02T05:48:47;1.00;;;1.00;;
14400;SDS011;7285;50.894;5.462;2024-03-02T05:51:14;1.00;;;1.00;;
14400;SDS011;7285;50.894;5.462;2024-03-02T05:53:41;1.00;;;1.00;;
14400;SDS011;7285;50.894;5.462;2024-03-02T05:56:08;0.93;;;0.93;;
14400;SDS011;7285;50.894;5.462;2024-03-02T05:58:34;1.00;;;1.00;;
14400;SDS011;7285;50.894;5.462;2024-03-02T06:01:15;1.00;;;1.00;;
14400;SDS011;7285;50.894;5.462;2024-03-02T06:03:43;0.90;;;0.90;;
14400;SDS011;7285;50.894;5.462;2024-03-02T06:06:11;1.00;;;1.00;;
14400;SDS011;7285;50.894;5.462;2024-03-02T06:08:38;1.00;;;1.00;;
14400;SDS011;7285;50.894;5.462;2024-03-02T06:11:05;1.00;;;1.00;;
14400;SDS011;7285;50.894;5.462;2024-03-02T06:13:32;0.90;;;0.90;;
14400;SDS011;7285;50.894;5.462;2024-03-02T06:15:59;0.90;;;0.90;;
14400;SDS011;7285;50.894;5.462;2024-03-02T06:18:26;1.10;;;1.10;;
14400;SDS011;7285;50.894;5.462;2024-03-02T06:20:54;0.97;;;0.97;;
14400;SDS011;7285;50.894;5.462;2024-03-02T06:23:22;1.00;;;1.00;;
14400;SDS011;7285;50.894;5.462;2024-03-02T06:25:49;1.10;;;1.10;;
14400;SDS011;7285;50.894;5.462;2024-03-02T06:28:16;1.03;;;1.03;;
14400;SDS011;7285;50.894;5.462;2024-03-02T06:30:43;0.90;;;0.90;;
14400;SDS011;7285;50.894;5.462;2024-03-02T06:33:11;1.00;;;1.00;;
14400;SDS011;7285;50.894;5.462;2024-03-02T06:35:38;1.00;;;1.00;;
14400;SDS011;7285;50.894;5.462;2024-03-02T06:38:05;1.00;;;1.00;;
14400;SDS011;7285;50.894;5.462;2024-03-02T06:40:33;1.20;;;1.20;;
14400;SDS011;7285;50.894;5.462;2024-03-02T06:43:02;1.00;;;1.00;;
14400;SDS011;7285;50.894;5.462;2024-03-02T06:45:29;1.00;;;1.00;;
14400;SDS011;7285;50.894;5.462;2024-03-02T06:47:56;1.00;;;1.00;;
14400;SDS011;7285;50.894;5.462;2024-03-02T06:50:23;1.10;;;1.10;;
14400;SDS011;7285;50.894;5.462;2024-03-02T06:52:50;1.00;;;1.00;;
14400;SDS011;7285;50.894;5.462;2024-03-02T06:55:17;1.00;;;1.00;;
14400;SDS011;7285;50.894;5.462;2024-03-02T06:57:45;1.00;;;1.00;;
14400;SDS011;7285;50.894;5.462;2024-03-02T07:00:12;1.00;;;1.00;;
14400;SDS011;7285;50.894;5.462;2024-03-02T07:02:40;0.80;;;0.80;;
14400;SDS011;7285;50.894;5.462;2024-03-02T07:05:07;1.20;;;1.20;;
14400;SDS011;7285;50.894;5.462;2024-03-02T07:07:34;1.20;;;1.20;;
14400;SDS011;7285;50.894;5.462;2024-03-02T07:10:01;1.00;;;1.00;;
14400;SDS011;7285;50.894;5.462;2024-03-02T07:12:29;0.90;;;0.90;;
14400;SDS011;7285;50.894;5.462;2024-03-02T07:14:57;0.90;;;0.90;;
14400;SDS011;7285;50.894;5.462;2024-03-02T07:17:41;1.00;;;1.00;;
14400;SDS011;7285;50.894;5.462;2024-03-02T07:20:09;0.90;;;0.90;;
14400;SDS011;7285;50.894;5.462;2024-03-02T07:22:37;1.10;;;1.10;;
14400;SDS011;7285;50.894;5.462;2024-03-02T07:25:05;1.00;;;1.00;;
14400;SDS011;7285;50.894;5.462;2024-03-02T07:27:32;1.10;;;1.10;;
14400;SDS011;7285;50.894;5.462;2024-03-02T07:30:01;1.00;;;1.00;;
14400;SDS011;7285;50.894;5.462;2024-03-02T07:32:28;0.93;;;0.93;;
14400;SDS011;7285;50.894;5.462;2024-03-02T07:34:55;0.90;;;0.90;;
14400;SDS011;7285;50.894;5.462;2024-03-02T07:37:22;1.00;;;1.00;;
14400;SDS011;7285;50.894;5.462;2024-03-02T07:39:49;1.00;;;1.00;;
14400;SDS011;7285;50.894;5.462;2024-03-02T07:42:16;0.97;;;0.97;;
14400;SDS011;7285;50.894;5.462;2024-03-02T07:44:44;1.00;;;1.00;;
14400;SDS011;7285;50.894;5.462;2024-03-02T07:47:12;1.00;;;1.00;;
14400;SDS011;7285;50.894;5.462;2024-03-02T07:49:39;1.17;;;1.17;;
14400;SDS011;7285;50.894;5.462;2024-03-02T07:52:06;0.90;;;0.90;;
14400;SDS011;7285;50.894;5.462;2024-03-02T07:54:33;1.20;;;1.20;;
14400;SDS011;7285;50.894;5.462;2024-03-02T07:57:00;0.93;;;0.93;;
14400;SDS011;7285;50.894;5.462;2024-03-02T07:59:27;0.90;;;0.90;;
14400;SDS011;7285;50.894;5.462;2024-03-02T08:01:54;0.90;;;0.90;;
14400;SDS011;7285;50.894;5.462;2024-03-02T08:04:22;0.93;;;0.93;;
14400;SDS011;7285;50.894;5.462;2024-03-02T08:06:49;0.90;;;0.90;;
14400;SDS011;7285;50.894;5.462;2024-03-02T08:09:16;0.90;;;0.90;;
14400;SDS011;7285;50.894;5.462;2024-03-02T08:11:43;0.90;;;0.90;;
14400;SDS011;7285;50.894;5.462;2024-03-02T08:14:10;1.00;;;1.00;;
14400;SDS011;7285;50.894;5.462;2024-03-02T08:16:37;0.90;;;0.90;;
14400;SDS011;7285;50.894;5.462;2024-03-02T08:19:04;1.00;;;1.00;;
14400;SDS011;7285;50.894;5.462;2024-03-02T08:21:32;1.00;;;1.00;;
14400;SDS011;7285;50.894;5.462;2024-03-02T08:24:00;0.80;;;0.80;;
14400;SDS011;7285;50.894;5.462;2024-03-02T08:26:28;1.00;;;1.00;;
14400;SDS011;7285;50.894;5.462;2024-03-02T08:28:56;0.90;;;0.90;;
14400;SDS011;7285;50.894;5.462;2024-03-02T08:31:23;0.80;;;0.80;;
14400;SDS011;7285;50.894;5.462;2024-03-02T08:33:50;0.80;;;0.80;;
14400;SDS011;7285;50.894;5.462;2024-03-02T08:36:17;0.97;;;0.97;;
14400;SDS011;7285;50.894;5.462;2024-03-02T08:38:46;0.80;;;0.80;;
14400;SDS011;7285;50.894;5.462;2024-03-02T08:41:14;0.80;;;0.80;;
14400;SDS011;7285;50.894;5.462;2024-03-02T08:43:41;0.80;;;0.80;;
14400;SDS011;7285;50.894;5.462;2024-03-02T08:46:09;0.80;;;0.80;;
14400;SDS011;7285;50.894;5.462;2024-03-02T08:48:36;0.80;;;0.80;;
14400;SDS011;7285;50.894;5.462;2024-03-02T08:51:03;0.80;;;0.80;;
14400;SDS011;7285;50.894;5.462;2024-03-02T08:53:32;0.80;;;0.80;;
14400;SDS011;7285;50.894;5.462;2024-03-02T08:56:01;1.00;;;1.00;;
14400;SDS011;7285;50.894;5.462;2024-03-02T08:58:30;1.00;;;1.00;;
14400;SDS011;7285;50.894;5.462;2024-03-02T09:00:57;0.70;;;0.70;;
14400;SDS011;7285;50.894;5.462;2024-03-02T09:03:24;2.23;;;1.90;;
14400;SDS011;7285;50.894;5.462;2024-03-02T09:05:51;1.57;;;1.57;;
14400;SDS011;7285;50.894;5.462;2024-03-02T09:08:18;0.70;;;0.70;;
14400;SDS011;7285;50.894;5.462;2024-03-02T09:10:45;1.00;;;1.00;;
14400;SDS011;7285;50.894;5.462;2024-03-02T09:13:13;0.80;;;0.80;;
14400;SDS011;7285;50.894;5.462;2024-03-02T09:15:41;0.80;;;0.80;;
14400;SDS011;7285;50.894;5.462;2024-03-02T09:18:09;0.80;;;0.80;;
14400;SDS011;7285;50.894;5.462;2024-03-02T09:20:36;0.70;;;0.70;;
14400;SDS011;7285;50.894;5.462;2024-03-02T09:23:03;0.80;;;0.80;;
14400;SDS011;7285;50.894;5.462;2024-03-02T09:25:30;0.70;;;0.70;;
14400;SDS011;7285;50.894;5.462;2024-03-02T09:27:57;0.80;;;0.80;;
14400;SDS011;7285;50.894;5.462;2024-03-02T09:30:25;1.17;;;1.17;;
14400;SDS011;7285;50.894;5.462;2024-03-02T09:32:52;0.70;;;0.70;;
14400;SDS011;7285;50.894;5.462;2024-03-02T09:35:19;0.60;;;0.60;;
14400;SDS011;7285;50.894;5.462;2024-03-02T09:37:46;0.67;;;0.67;;
14400;SDS011;7285;50.894;5.462;2024-03-02T09:40:13;1.43;;;0.90;;
14400;SDS011;7285;50.894;5.462;2024-03-02T09:42:41;0.70;;;0.70;;
14400;SDS011;7285;50.894;5.462;2024-03-02T09:45:09;0.67;;;0.67;;
14400;SDS011;7285;50.894;5.462;2024-03-02T09:47:37;0.90;;;0.90;;
14400;SDS011;7285;50.894;5.462;2024-03-02T09:50:05;0.60;;;0.60;;
14400;SDS011;7285;50.894;5.462;2024-03-02T09:52:33;0.50;;;0.50;;
14400;SDS011;7285;50.894;5.462;2024-03-02T09:55:00;0.80;;;0.80;;
14400;SDS011;7285;50.894;5.462;2024-03-02T09:57:27;0.60;;;0.60;;
14400;SDS011;7285;50.894;5.462;2024-03-02T09:59:54;0.80;;;0.80;;
14400;SDS011;7285;50.894;5.462;2024-03-02T10:02:21;0.70;;;0.70;;
14400;SDS011;7285;50.894;5.462;2024-03-02T10:04:50;0.60;;;0.60;;
14400;SDS011;7285;50.894;5.462;2024-03-02T10:07:17;0.50;;;0.50;;
14400;SDS011;7285;50.894;5.462;2024-03-02T10:09:45;0.50;;;0.50;;
14400;SDS011;7285;50.894;5.462;2024-03-02T10:12:13;0.60;;;0.60;;
14400;SDS011;7285;50.894;5.462;2024-03-02T10:14:42;0.50;;;0.50;;
14400;SDS011;7285;50.894;5.462;2024-03-02T10:17:10;0.60;;;0.60;;
14400;SDS011;7285;50.894;5.462;2024-03-02T10:19:38;0.70;;;0.70;;
14400;SDS011;7285;50.894;5.462;2024-03-02T10:22:07;0.70;;;0.70;;
14400;SDS011;7285;50.894;5.462;2024-03-02T10:24:36;0.63;;;0.63;;
14400;SDS011;7285;50.894;5.462;2024-03-02T10:27:07;0.50;;;0.50;;
14400;SDS011;7285;50.894;5.462;2024-03-02T10:29:39;0.40;;;0.40;;
14400;SDS011;7285;50.894;5.462;2024-03-02T10:32:08;0.50;;;0.50;;
14400;SDS011;7285;50.894;5.462;2024-03-02T10:34:36;0.40;;;0.40;;
14400;SDS011;7285;50.894;5.462;2024-03-02T10:37:03;0.67;;;0.60;;
14400;SDS011;7285;50.894;5.462;2024-03-02T10:39:33;0.50;;;0.50;;
14400;SDS011;7285;50.894;5.462;2024-03-02T10:42:02;0.50;;;0.50;;
14400;SDS011;7285;50.894;5.462;2024-03-02T10:44:30;0.83;;;0.77;;
14400;SDS011;7285;50.894;5.462;2024-03-02T10:46:59;4.03;;;0.50;;
14400;SDS011;7285;50.894;5.462;2024-03-02T10:49:29;0.40;;;0.40;;
14400;SDS011;7285;50.894;5.462;2024-03-02T10:51:57;0.40;;;0.40;;
14400;SDS011;7285;50.894;5.462;2024-03-02T10:54:24;0.40;;;0.40;;
14400;SDS011;7285;50.894;5.462;2024-03-02T10:56:55;0.60;;;0.60;;
14400;SDS011;7285;50.894;5.462;2024-03-02T10:59:31;0.40;;;0.40;;
14400;SDS011;7285;50.894;5.462;2024-03-02T11:02:00;0.43;;;0.43;;
14400;SDS011;7285;50.894;5.462;2024-03-02T11:04:28;10.70;;;0.60;;
14400;SDS011;7285;50.894;5.462;2024-03-02T11:06:58;1.03;;;1.00;;
14400;SDS011;7285;50.894;5.462;2024-03-02T11:09:27;0.60;;;0.60;;
14400;SDS011;7285;50.894;5.462;2024-03-02T11:11:59;0.30;;;0.30;;
14400;SDS011;7285;50.894;5.462;2024-03-02T11:14:30;0.30;;;0.30;;
14400;SDS011;7285;50.894;5.462;2024-03-02T11:16:58;0.43;;;0.43;;
14400;SDS011;7285;50.894;5.462;2024-03-02T11:19:28;0.40;;;0.40;;
14400;SDS011;7285;50.894;5.462;2024-03-02T11:21:56;0.83;;;0.83;;
14400;SDS011;7285;50.894;5.462;2024-03-02T11:24:30;0.40;;;0.40;;
14400;SDS011;7285;50.894;5.462;2024-03-02T11:27:00;0.60;;;0.60;;
14400;SDS011;7285;50.894;5.462;2024-03-02T11:29:43;3.13;;;0.70;;
14400;SDS011;7285;50.894;5.462;2024-03-02T11:32:17;0.40;;;0.40;;
14400;SDS011;7285;50.894;5.462;2024-03-02T11:34:48;0.40;;;0.40;;
14400;SDS011;7285;50.894;5.462;2024-03-02T11:37:16;0.37;;;0.37;;
14400;SDS011;7285;50.894;5.462;2024-03-02T11:39:46;0.87;;;0.33;;
14400;SDS011;7285;50.894;5.462;2024-03-02T11:42:16;0.67;;;0.67;;
14400;SDS011;7285;50.894;5.462;2024-03-02T11:44:44;0.50;;;0.50;;
14400;SDS011;7285;50.894;5.462;2024-03-02T11:47:13;0.50;;;0.50;;
14400;SDS011;7285;50.894;5.462;2024-03-02T11:49:42;0.40;;;0.40;;
14400;SDS011;7285;50.894;5.462;2024-03-02T11:52:10;0.63;;;0.63;;
14400;SDS011;7285;50.894;5.462;2024-03-02T11:54:38;0.87;;;0.87;;
14400;SDS011;7285;50.894;5.462;2024-03-02T11:57:11;0.50;;;0.50;;
14400;SDS011;7285;50.894;5.462;2024-03-02T11:59:40;0.40;;;0.40;;
14400;SDS011;7285;50.894;5.462;2024-03-02T12:02:12;0.40;;;0.40;;
14400;SDS011;7285;50.894;5.462;2024-03-02T12:04:40;0.73;;;0.67;;
14400;SDS011;7285;50.894;5.462;2024-03-02T12:07:08;0.70;;;0.70;;
14400;SDS011;7285;50.894;5.462;2024-03-02T12:09:35;4.03;;;0.50;;
14400;SDS011;7285;50.894;5.462;2024-03-02T12:12:03;0.40;;;0.40;;
14400;SDS011;7285;50.894;5.462;2024-03-02T12:14:31;0.40;;;0.40;;
14400;SDS011;7285;50.894;5.462;2024-03-02T12:16:59;0.40;;;0.40;;
14400;SDS011;7285;50.894;5.462;2024-03-02T12:19:27;0.37;;;0.37;;
14400;SDS011;7285;50.894;5.462;2024-03-02T12:21:55;0.47;;;0.47;;
14400;SDS011;7285;50.894;5.462;2024-03-02T12:24:22;0.53;;;0.53;;
14400;SDS011;7285;50.894;5.462;2024-03-02T12:26:50;1.13;;;0.43;;
14400;SDS011;7285;50.894;5.462;2024-03-02T12:29:18;0.30;;;0.30;;
14400;SDS011;7285;50.894;5.462;2024-03-02T12:31:45;0.50;;;0.50;;
14400;SDS011;7285;50.894;5.462;2024-03-02T12:34:17;0.40;;;0.40;;
14400;SDS011;7285;50.894;5.462;2024-03-02T12:36:45;0.80;;;0.80;;
14400;SDS011;7285;50.894;5.462;2024-03-02T12:39:14;0.30;;;0.30;;
14400;SDS011;7285;50.894;5.462;2024-03-02T12:41:42;0.30;;;0.30;;
14400;SDS011;7285;50.894;5.462;2024-03-02T12:44:09;1.00;;;0.60;;
14400;SDS011;7285;50.894;5.462;2024-03-02T12:46:36;0.40;;;0.40;;
14400;SDS011;7285;50.894;5.462;2024-03-02T12:49:07;0.60;;;0.60;;
14400;SDS011;7285;50.894;5.462;2024-03-02T12:51:38;0.30;;;0.30;;
14400;SDS011;7285;50.894;5.462;2024-03-02T12:54:06;0.40;;;0.40;;
14400;SDS011;7285;50.894;5.462;2024-03-02T12:56:33;0.60;;;0.60;;
14400;SDS011;7285;50.894;5.462;2024-03-02T12:59:01;0.30;;;0.30;;
14400;SDS011;7285;50.894;5.462;2024-03-02T13:01:29;0.70;;;0.70;;
14400;SDS011;7285;50.894;5.462;2024-03-02T13:03:57;0.37;;;0.37;;
14400;SDS011;7285;50.894;5.462;2024-03-02T13:06:25;0.30;;;0.30;;
14400;SDS011;7285;50.894;5.462;2024-03-02T13:08:55;0.40;;;0.40;;
14400;SDS011;7285;50.894;5.462;2024-03-02T13:11:22;0.40;;;0.40;;
14400;SDS011;7285;50.894;5.462;2024-03-02T13:13:49;0.40;;;0.40;;
14400;SDS011;7285;50.894;5.462;2024-03-02T13:16:17;0.50;;;0.50;;
14400;SDS011;7285;50.894;5.462;2024-03-02T13:18:45;0.50;;;0.50;;
14400;SDS011;7285;50.894;5.462;2024-03-02T13:21:12;0.47;;;0.47;;
14400;SDS011;7285;50.894;5.462;2024-03-02T13:23:39;0.63;;;0.50;;
14400;SDS011;7285;50.894;5.462;2024-03-02T13:26:08;0.50;;;0.50;;
14400;SDS011;7285;50.894;5.462;2024-03-02T13:28:37;0.40;;;0.40;;
14400;SDS011;7285;50.894;5.462;2024-03-02T13:31:04;1.43;;;0.53;;
14400;SDS011;7285;50.894;5.462;2024-03-02T13:33:32;0.97;;;0.97;;
14400;SDS011;7285;50.894;5.462;2024-03-02T13:35:58;0.60;;;0.60;;
14400;SDS011;7285;50.894;5.462;2024-03-02T13:38:26;0.47;;;0.47;;
14400;SDS011;7285;50.894;5.462;2024-03-02T13:40:53;0.50;;;0.50;;
14400;SDS011;7285;50.894;5.462;2024-03-02T13:43:22;2.83;;;0.77;;
14400;SDS011;7285;50.894;5.462;2024-03-02T13:45:49;0.50;;;0.50;;
14400;SDS011;7285;50.894;5.462;2024-03-02T13:48:18;0.40;;;0.40;;
14400;SDS011;7285;50.894;5.462;2024-03-02T13:50:45;4.03;;;0.50;;
14400;SDS011;7285;50.894;5.462;2024-03-02T13:53:12;0.63;;;0.63;;
14400;SDS011;7285;50.894;5.462;2024-03-02T13:55:39;0.50;;;0.50;;
14400;SDS011;7285;50.894;5.462;2024-03-02T13:58:06;0.47;;;0.47;;
14400;SDS011;7285;50.894;5.462;2024-03-02T14:00:35;0.87;;;0.60;;
14400;SDS011;7285;50.894;5.462;2024-03-02T14:03:03;0.40;;;0.40;;
14400;SDS011;7285;50.894;5.462;2024-03-02T14:05:31;0.40;;;0.40;;
14400;SDS011;7285;50.894;5.462;2024-03-02T14:07:58;0.40;;;0.40;;
14400;SDS011;7285;50.894;5.462;2024-03-02T14:10:25;0.40;;;0.40;;
14400;SDS011;7285;50.894;5.462;2024-03-02T14:12:53;0.40;;;0.40;;
14400;SDS011;7285;50.894;5.462;2024-03-02T14:15:20;0.60;;;0.60;;
14400;SDS011;7285;50.894;5.462;2024-03-02T14:17:49;0.57;;;0.57;;
14400;SDS011;7285;50.894;5.462;2024-03-02T14:20:16;0.50;;;0.50;;
14400;SDS011;7285;50.894;5.462;2024-03-02T14:22:46;0.50;;;0.50;;
14400;SDS011;7285;50.894;5.462;2024-03-02T14:25:14;0.40;;;0.40;;
14400;SDS011;7285;50.894;5.462;2024-03-02T14:27:41;0.50;;;0.50;;
14400;SDS011;7285;50.894;5.462;2024-03-02T14:30:08;0.50;;;0.50;;
14400;SDS011;7285;50.894;5.462;2024-03-02T14:32:36;0.50;;;0.50;;
14400;SDS011;7285;50.894;5.462;2024-03-02T14:35:05;0.60;;;0.60;;
14400;SDS011;7285;50.894;5.462;2024-03-02T14:37:34;0.50;;;0.50;;
14400;SDS011;7285;50.894;5.462;2024-03-02T14:40:02;0.60;;;0.60;;
14400;SDS011;7285;50.894;5.462;2024-03-02T14:42:31;0.40;;;0.40;;
14400;SDS011;7285;50.894;5.462;2024-03-02T14:44:58;0.50;;;0.50;;
14400;SDS011;7285;50.894;5.462;2024-03-02T14:47:25;0.50;;;0.50;;
14400;SDS011;7285;50.894;5.462;2024-03-02T14:49:52;0.50;;;0.50;;
14400;SDS011;7285;50.894;5.462;2024-03-02T14:52:21;0.50;;;0.50;;
14400;SDS011;7285;50.894;5.462;2024-03-02T14:54:48;0.67;;;0.67;;
14400;SDS011;7285;50.894;5.462;2024-03-02T14:57:15;0.70;;;0.70;;
14400;SDS011;7285;50.894;5.462;2024-03-02T14:59:41;0.50;;;0.50;;
14400;SDS011;7285;50.894;5.462;2024-03-02T15:02:08;0.60;;;0.60;;
14400;SDS011;7285;50.894;5.462;2024-03-02T15:04:35;0.70;;;0.70;;